Aviation Digital Data Service (ADDS)

Output produced by METARs form (0212 UTC 16 January 2019)
found at http://www.aviationweather.gov/metar/data/
 
GGOV 160100Z 23005KT CAVOK 22/20 Q1012 NOSIG
TAF GGOV 152300Z 1600/1624 24006KT CAVOK